createdAt,value
2018-04-24T00:01:35.689Z,101800.14
2018-04-24T00:04:03.267Z,101806.73
2018-04-24T00:06:31.007Z,101814.56
2018-04-24T00:08:59.203Z,101798.92
2018-04-24T00:20:35.386Z,101791.59
2018-04-24T00:23:02.962Z,101793.25
2018-04-24T00:25:30.611Z,101793.25
2018-04-24T00:37:06.948Z,101806.50
2018-04-24T00:39:34.491Z,101801.71
2018-04-24T00:42:02.179Z,101802.50
2018-04-24T00:53:45.245Z,101797.81
2018-04-24T00:56:12.813Z,101788.70
2018-04-24T00:58:41.429Z,101790.00
2018-04-24T01:10:18.243Z,101802.61
2018-04-24T01:12:45.836Z,101793.99
2018-04-24T01:15:13.459Z,101783.64
2018-04-24T01:26:56.020Z,101786.39
2018-04-24T01:29:23.574Z,101788.17
2018-04-24T01:31:51.216Z,101786.91
2018-04-24T01:34:19.480Z,101791.41
2018-04-24T01:45:56.046Z,101777.30
2018-04-24T01:48:23.688Z,101776.01
2018-04-24T01:50:51.247Z,101787.73
2018-04-24T02:02:27.303Z,101788.17
2018-04-24T02:04:56.041Z,101782.53
2018-04-24T02:07:23.655Z,101776.94
2018-04-24T02:19:00.439Z,101783.41
2018-04-24T02:21:28.150Z,101776.44
2018-04-24T02:23:55.691Z,101778.08
2018-04-24T02:35:31.899Z,101778.36
2018-04-24T02:37:59.705Z,101783.96
2018-04-24T02:40:27.363Z,101780.47
2018-04-24T02:52:22.331Z,101786.91
2018-04-24T02:54:49.916Z,101782.10
2018-04-24T02:57:17.538Z,101792.99
2018-04-24T03:11:50.811Z,101780.34
2018-04-24T03:14:18.420Z,101775.16
2018-04-24T03:16:50.171Z,101771.27
2018-04-24T03:28:31.635Z,101767.11
2018-04-24T03:30:59.246Z,101758.06
2018-04-24T03:33:28.574Z,101760.66
2018-04-24T03:45:04.471Z,101753.80
2018-04-24T03:47:32.084Z,101742.52
2018-04-24T03:50:00.890Z,101745.56
2018-04-24T04:01:37.715Z,101761.66
2018-04-24T04:04:05.341Z,101757.31
2018-04-24T04:06:32.995Z,101761.19
2018-04-24T04:18:20.943Z,101761.17
2018-04-24T04:21:00.410Z,101753.80
2018-04-24T04:23:39.751Z,101756.44
2018-04-24T04:35:15.646Z,101756.97
2018-04-24T04:37:43.168Z,101753.58
2018-04-24T04:40:10.739Z,101752.27
2018-04-24T04:51:51.255Z,101742.81
2018-04-24T04:54:18.831Z,101752.80
2018-04-24T04:56:46.994Z,101751.93
2018-04-24T05:10:36.315Z,101767.61
2018-04-24T05:13:03.975Z,101763.24
2018-04-24T05:15:31.635Z,101765.44
2018-04-24T05:27:07.951Z,101762.44
2018-04-24T05:29:35.513Z,101761.08
2018-04-24T05:32:03.143Z,101753.23
2018-04-24T05:43:39.472Z,101766.60
2018-04-24T05:46:07.061Z,101774.81
2018-04-24T05:48:34.803Z,101777.38
2018-04-24T06:00:10.810Z,101773.94
2018-04-24T06:02:38.424Z,101776.52
2018-04-24T06:05:06.056Z,101785.21
2018-04-24T06:07:33.766Z,101779.06
2018-04-24T06:19:10.227Z,101769.02
2018-04-24T06:21:38.932Z,101765.46
2018-04-24T06:24:07.224Z,101761.02
2018-04-24T06:35:43.719Z,101742.95
2018-04-24T06:38:11.302Z,101741.11
2018-04-24T06:40:38.972Z,101729.72
2018-04-24T06:52:15.112Z,101726.59
2018-04-24T06:54:42.755Z,101733.06
2018-04-24T06:57:10.596Z,101729.98
2018-04-24T07:08:47.226Z,101736.88
2018-04-24T07:11:14.853Z,101735.98
2018-04-24T07:13:42.448Z,101741.13
2018-04-24T07:16:10.217Z,101744.12
2018-04-24T07:27:46.528Z,101713.02
2018-04-24T07:30:14.625Z,101704.53
2018-04-24T07:32:42.195Z,101697.35
2018-04-24T07:43:57.755Z,101713.01
2018-04-24T07:46:25.342Z,101706.73
2018-04-24T07:48:52.894Z,101704.34
2018-04-24T08:02:03.596Z,101669.56
2018-04-24T08:04:31.183Z,101673.51
2018-04-24T08:06:58.811Z,101663.93
2018-04-24T08:17:27.250Z,101641.50
2018-04-24T08:19:54.899Z,101639.05
2018-04-24T08:22:22.551Z,101648.05
2018-04-24T08:24:50.311Z,101640.05
2018-04-24T08:36:19.977Z,101615.51
2018-04-24T08:38:48.029Z,101617.92
2018-04-24T08:41:15.607Z,101631.76
2018-04-24T08:52:51.527Z,101637.83
2018-04-24T08:55:19.082Z,101635.97
2018-04-24T08:57:46.673Z,101616.52
2018-04-24T09:09:22.774Z,101577.88
2018-04-24T09:11:50.437Z,101579.28
2018-04-24T09:14:18.068Z,101571.63
2018-04-24T09:25:54.851Z,101557.00
2018-04-24T09:28:22.478Z,101559.34
2018-04-24T09:30:50.088Z,101557.43
2018-04-24T09:42:21.311Z,101555.87
2018-04-24T09:44:48.945Z,101549.88
2018-04-24T09:47:17.299Z,101546.92
2018-04-24T09:49:44.924Z,101545.18
2018-04-24T10:01:29.539Z,101550.02
2018-04-24T10:03:57.279Z,101536.92
2018-04-24T10:06:24.920Z,101534.70
2018-04-24T10:18:01.533Z,101520.50
2018-04-24T10:20:29.233Z,101512.24
2018-04-24T10:22:56.881Z,101504.87
2018-04-24T10:34:33.284Z,101492.50
2018-04-24T10:37:00.958Z,101490.34
2018-04-24T10:39:29.548Z,101487.26
2018-04-24T10:51:05.640Z,101451.01
2018-04-24T10:53:33.199Z,101448.23
2018-04-24T10:56:01.729Z,101444.58
2018-04-24T11:07:38.520Z,101431.80
2018-04-24T11:10:06.147Z,101427.80
2018-04-24T11:12:33.825Z,101426.36
2018-04-24T11:15:01.427Z,101425.35
2018-04-24T11:26:40.470Z,101406.91
2018-04-24T11:29:07.956Z,101411.00
2018-04-24T11:31:35.487Z,101414.70
2018-04-24T11:43:11.547Z,101399.70
2018-04-24T11:45:39.112Z,101399.73
2018-04-24T11:48:06.799Z,101388.95
2018-04-24T11:59:43.232Z,101389.36
2018-04-24T12:02:17.645Z,101378.98
2018-04-24T12:04:45.479Z,101376.42
2018-04-24T12:16:21.355Z,101369.63
2018-04-24T12:18:49.027Z,101367.05
2018-04-24T12:21:19.758Z,101370.64
2018-04-24T12:33:08.736Z,101384.33
2018-04-24T12:35:36.409Z,101366.34
2018-04-24T12:38:04.072Z,101365.67
2018-04-24T12:40:35.250Z,101357.55
2018-04-24T12:52:52.945Z,101344.64
2018-04-24T12:55:20.913Z,101336.48
2018-04-24T13:07:09.952Z,101346.73
2018-04-24T13:09:41.620Z,101328.84
2018-04-24T13:12:09.528Z,101331.73
2018-04-24T13:14:38.196Z,101331.62
2018-04-24T13:26:14.086Z,101323.49
2018-04-24T13:28:43.818Z,101326.05
2018-04-24T13:31:12.625Z,101310.28
2018-04-24T13:42:51.006Z,101298.07
2018-04-24T13:46:14.706Z,101307.63
2018-04-24T13:48:42.331Z,101312.23
2018-04-24T14:00:18.450Z,101294.81
2018-04-24T14:02:46.191Z,101297.86
2018-04-24T14:05:13.856Z,101298.41
2018-04-24T14:16:52.866Z,101283.19
2018-04-24T14:19:20.553Z,101276.32
2018-04-24T14:21:48.181Z,101269.96
2018-04-24T14:33:39.237Z,101243.94
2018-04-24T14:36:42.458Z,101241.62
2018-04-24T14:39:10.053Z,101248.39
2018-04-24T14:50:46.824Z,101231.27
2018-04-24T14:53:14.339Z,101233.44
2018-04-24T14:55:41.996Z,101226.86
2018-04-24T15:07:28.447Z,101204.41
2018-04-24T15:09:56.299Z,101209.20
2018-04-24T15:12:24.809Z,101219.30
2018-04-24T15:24:03.015Z,101220.39
2018-04-24T15:26:30.885Z,101198.41
2018-04-24T15:28:58.459Z,101196.89
2018-04-24T15:43:08.025Z,101167.32
2018-04-24T15:45:35.566Z,101172.37
2018-04-24T15:48:03.243Z,101168.19
2018-04-24T15:59:50.156Z,101149.25
2018-04-24T16:02:17.705Z,101146.86
2018-04-24T16:04:45.472Z,101137.04
2018-04-24T16:16:22.231Z,101125.25
2018-04-24T16:18:51.148Z,101122.24
2018-04-24T16:21:18.882Z,101134.50
2018-04-24T16:33:13.250Z,101113.77
2018-04-24T16:35:41.648Z,101117.98
2018-04-24T16:38:09.304Z,101097.93
2018-04-24T16:49:44.400Z,101054.12
2018-04-24T16:52:12.301Z,101062.72
2018-04-24T16:54:39.935Z,101073.60
2018-04-24T17:06:20.794Z,101061.63
2018-04-24T17:08:50.161Z,101069.66
2018-04-24T17:11:17.860Z,101069.30
2018-04-24T17:23:26.272Z,101073.08
2018-04-24T17:25:59.134Z,101034.48
2018-04-24T17:28:39.702Z,101048.13
2018-04-24T17:40:38.451Z,101051.12
2018-04-24T17:43:10.349Z,101046.25
2018-04-24T17:45:38.164Z,101058.98
2018-04-24T17:57:35.466Z,101044.08
2018-04-24T18:00:04.253Z,101046.84
2018-04-24T18:02:33.039Z,101039.06
2018-04-24T18:16:46.040Z,101065.89
2018-04-24T18:19:13.900Z,101061.13
2018-04-24T18:21:41.530Z,101058.52
2018-04-24T18:33:18.199Z,101071.08
2018-04-24T18:35:46.677Z,101087.77
2018-04-24T18:38:14.248Z,101081.11
2018-04-24T18:49:08.081Z,101122.78
2018-04-24T18:51:36.505Z,101114.98
2018-04-24T18:54:04.112Z,101119.23
2018-04-24T18:56:31.785Z,101130.87
2018-04-24T19:08:09.219Z,101156.27
2018-04-24T19:10:36.915Z,101153.56
2018-04-24T19:13:05.486Z,101158.94
2018-04-24T19:24:46.957Z,101161.63
2018-04-24T19:27:14.589Z,101167.59
2018-04-24T19:29:42.283Z,101174.64
2018-04-24T19:41:25.151Z,101207.87
2018-04-24T19:43:52.757Z,101206.99
2018-04-24T19:46:20.417Z,101211.80
2018-04-24T19:57:07.713Z,101220.36
2018-04-24T19:59:35.342Z,101229.05
2018-04-24T20:02:03.020Z,101229.09
2018-04-24T20:04:30.640Z,101235.22
2018-04-24T20:15:04.669Z,101254.23
2018-04-24T20:17:32.293Z,101254.37
2018-04-24T20:19:59.980Z,101256.55
2018-04-24T20:22:27.549Z,101256.30
2018-04-24T20:32:52.124Z,101274.56
2018-04-24T20:35:20.509Z,101273.19
2018-04-24T20:37:48.147Z,101274.91
2018-04-24T20:51:11.179Z,101266.10
2018-04-24T20:53:38.744Z,101278.23
2018-04-24T20:56:06.295Z,101278.13
2018-04-24T21:06:22.270Z,101290.94
2018-04-24T21:08:49.893Z,101292.24
2018-04-24T21:11:17.472Z,101291.72
2018-04-24T21:13:45.067Z,101290.82
2018-04-24T21:18:49.584Z,101289.86
2018-04-24T21:21:20.786Z,101290.27
2018-04-24T21:23:48.380Z,101296.86
2018-04-24T21:26:17.030Z,101304.63
2018-04-24T21:28:44.655Z,101310.24
2018-04-24T21:31:12.219Z,101306.73
2018-04-24T21:41:46.647Z,101313.34
2018-04-24T21:44:14.291Z,101304.75
2018-04-24T21:46:42.538Z,101311.67
2018-04-24T21:59:27.360Z,101307.70
2018-04-24T22:01:55.029Z,101305.58
2018-04-24T22:04:23.510Z,101306.03
2018-04-24T22:14:43.749Z,101302.34
2018-04-24T22:17:11.356Z,101313.69
2018-04-24T22:19:39.269Z,101317.16
2018-04-24T22:22:08.003Z,101318.52
2018-04-24T22:32:28.196Z,101340.28
2018-04-24T22:34:55.760Z,101336.80
2018-04-24T22:37:23.358Z,101335.05
2018-04-24T22:39:51.528Z,101338.11
2018-04-24T22:45:00.751Z,101334.53
2018-04-24T22:47:32.636Z,101334.58
2018-04-24T22:50:00.307Z,101338.02
2018-04-24T22:52:27.860Z,101340.59
2018-04-24T22:54:55.471Z,101344.95
2018-04-24T22:57:23.131Z,101345.78
2018-04-24T22:59:51.921Z,101331.50
2018-04-24T23:02:21.860Z,101330.67
2018-04-24T23:04:50.713Z,101337.21
2018-04-24T23:07:19.225Z,101320.72
2018-04-24T23:09:54.270Z,101320.31
2018-04-24T23:12:33.697Z,101316.39
2018-04-24T23:20:30.755Z,101322.90
2018-04-24T23:22:58.317Z,101324.22
2018-04-24T23:25:25.957Z,101322.05
2018-04-24T23:27:54.642Z,101321.25
2018-04-24T23:30:22.232Z,101319.09
2018-04-24T23:40:55.776Z,101323.62
2018-04-24T23:43:24.336Z,101308.03
2018-04-24T23:45:51.946Z,101310.19
2018-04-24T23:48:19.712Z,101315.47
2018-04-24T23:58:51.928Z,101326.22
